createdAt,value
2018-12-07T00:01:44.762Z,100656.43
2018-12-07T00:07:34.382Z,100641.55
2018-12-07T00:10:26.376Z,100635.95
2018-12-07T00:19:34.087Z,100630.95
2018-12-07T00:22:23.014Z,100633.00
2018-12-07T00:28:30.397Z,100634.81
2018-12-07T00:31:00.420Z,100636.27
2018-12-07T00:36:58.580Z,100618.87
2018-12-07T00:39:28.523Z,100621.58
2018-12-07T00:42:12.418Z,100616.77
2018-12-07T00:45:01.336Z,100614.50
2018-12-07T00:47:31.600Z,100605.91
2018-12-07T00:50:14.234Z,100599.73
2018-12-07T01:05:18.764Z,100583.05
2018-12-07T01:08:05.073Z,100584.43
2018-12-07T01:13:53.070Z,100584.73
2018-12-07T01:16:42.919Z,100578.97
2018-12-07T01:19:33.807Z,100574.21
2018-12-07T01:31:44.766Z,100558.38
2018-12-07T01:37:43.204Z,100555.18
2018-12-07T01:40:13.423Z,100556.66
2018-12-07T01:45:52.209Z,100549.92
2018-12-07T01:54:40.527Z,100548.36
2018-12-07T01:57:29.490Z,100539.33
2018-12-07T01:59:59.421Z,100532.81
2018-12-07T02:05:46.649Z,100518.61
2018-12-07T02:14:42.086Z,100506.34
2018-12-07T02:17:21.858Z,100499.38
2018-12-07T02:19:52.056Z,100512.34
2018-12-07T02:22:22.502Z,100503.74
2018-12-07T02:25:10.790Z,100497.23
2018-12-07T02:34:08.529Z,100486.76
2018-12-07T02:36:38.534Z,100480.70
2018-12-07T02:42:26.318Z,100470.28
2018-12-07T02:45:12.204Z,100465.97
2018-12-07T02:54:20.259Z,100456.80
2018-12-07T02:57:08.058Z,100448.73
2018-12-07T02:59:56.147Z,100456.93
2018-12-07T03:02:39.160Z,100456.01
2018-12-07T03:08:35.024Z,100453.48
2018-12-07T03:11:23.370Z,100447.10
2018-12-07T03:14:11.312Z,100447.43
2018-12-07T03:16:41.904Z,100427.10
2018-12-07T03:19:29.730Z,100430.50
2018-12-07T03:22:17.750Z,100421.46
2018-12-07T03:25:04.214Z,100416.30
2018-12-07T03:27:42.293Z,100409.79
2018-12-07T03:30:30.810Z,100408.81
2018-12-07T03:33:19.724Z,100406.27
2018-12-07T03:36:06.425Z,100407.98
2018-12-07T03:38:59.243Z,100399.75
2018-12-07T03:44:54.703Z,100392.39
2018-12-07T03:47:24.988Z,100392.48
2018-12-07T03:53:23.757Z,100395.55
2018-12-07T03:55:59.850Z,100383.69
2018-12-07T03:58:49.492Z,100381.52
2018-12-07T04:01:19.504Z,100379.70
2018-12-07T04:04:05.086Z,100373.27
2018-12-07T04:06:35.070Z,100373.32
2018-12-07T04:09:28.916Z,100376.01
2018-12-07T04:15:29.309Z,100367.27
2018-12-07T04:18:15.020Z,100361.22
2018-12-07T04:21:03.524Z,100361.77
2018-12-07T04:23:51.584Z,100356.02
2018-12-07T04:36:07.981Z,100345.59
2018-12-07T04:38:39.086Z,100337.23
2018-12-07T04:41:16.128Z,100335.09
2018-12-07T04:50:14.124Z,100326.38
2018-12-07T04:52:56.440Z,100322.91
2018-12-07T05:02:14.279Z,100319.55
2018-12-07T05:05:01.983Z,100315.09
2018-12-07T05:07:31.966Z,100304.75
2018-12-07T05:13:20.408Z,100306.14
2018-12-07T05:19:29.311Z,100299.08
2018-12-07T05:25:19.022Z,100287.36
2018-12-07T05:34:27.190Z,100288.75
2018-12-07T05:37:06.920Z,100281.77
2018-12-07T05:39:47.389Z,100280.09
2018-12-07T05:42:35.193Z,100274.51
2018-12-07T05:45:24.020Z,100270.05
2018-12-07T05:48:08.578Z,100271.36
2018-12-07T05:53:56.139Z,100264.84
2018-12-07T05:56:45.803Z,100257.11
2018-12-07T05:59:20.581Z,100253.67
2018-12-07T06:02:12.675Z,100251.53
2018-12-07T06:05:00.729Z,100248.08
2018-12-07T06:07:49.961Z,100241.95
2018-12-07T06:10:36.262Z,100240.27
2018-12-07T06:13:25.530Z,100239.34
2018-12-07T06:19:24.765Z,100233.34
2018-12-07T06:22:13.441Z,100228.55
2018-12-07T06:31:08.770Z,100213.44
2018-12-07T06:37:07.421Z,100218.56
2018-12-07T06:43:15.421Z,100213.44
2018-12-07T06:46:03.316Z,100211.30
2018-12-07T06:52:11.477Z,100193.20
2018-12-07T06:54:59.511Z,100198.27
2018-12-07T06:57:45.350Z,100197.52
2018-12-07T07:00:15.664Z,100185.39
2018-12-07T07:06:17.884Z,100186.41
2018-12-07T07:08:48.660Z,100182.04
2018-12-07T07:11:18.467Z,100182.36
2018-12-07T07:17:17.460Z,100176.73
2018-12-07T07:26:14.884Z,100160.73
2018-12-07T07:29:08.743Z,100160.73
2018-12-07T07:31:57.686Z,100158.59
2018-12-07T07:34:46.594Z,100151.71
2018-12-07T07:37:35.307Z,100155.16
2018-12-07T07:49:32.981Z,100145.29
2018-12-07T07:55:27.212Z,100135.77
2018-12-07T07:58:10.509Z,100133.57
2018-12-07T08:00:40.570Z,100128.36
2018-12-07T08:03:17.691Z,100124.05
2018-12-07T08:06:05.618Z,100127.95
2018-12-07T08:08:35.871Z,100120.23
2018-12-07T08:11:05.713Z,100121.45
2018-12-07T08:13:53.933Z,100116.33
2018-12-07T08:19:24.832Z,100111.95
2018-12-07T08:21:54.951Z,100110.66
2018-12-07T08:27:52.981Z,100108.42
2018-12-07T08:30:36.457Z,100100.16
2018-12-07T08:33:07.832Z,100096.70
2018-12-07T08:39:15.906Z,100090.61
2018-12-07T08:41:45.980Z,100087.13
2018-12-07T08:44:44.302Z,100082.80
2018-12-07T08:47:14.266Z,100086.29
2018-12-07T08:49:49.171Z,100077.58
2018-12-07T08:52:19.191Z,100077.58
2018-12-07T08:58:27.804Z,100075.41
2018-12-07T09:21:41.044Z,100026.25
2018-12-07T09:33:47.655Z,100010.63
2018-12-07T09:36:36.461Z,100006.72
2018-12-07T09:45:26.892Z,99986.81
2018-12-07T09:47:56.764Z,99988.48
2018-12-07T09:50:27.838Z,99974.63
2018-12-07T09:52:59.061Z,99969.89
2018-12-07T09:55:44.937Z,99967.28
2018-12-07T09:58:30.889Z,99961.61
2018-12-07T10:01:16.863Z,99950.36
2018-12-07T10:04:02.414Z,99950.36
2018-12-07T10:06:44.472Z,99942.23
2018-12-07T10:12:29.858Z,99927.76
2018-12-07T10:15:16.341Z,99912.23
2018-12-07T10:17:59.801Z,99908.69
2018-12-07T10:20:54.426Z,99902.46
2018-12-07T10:28:39.420Z,99896.72
2018-12-07T10:31:09.383Z,99883.30
2018-12-07T10:33:55.278Z,99876.73
2018-12-07T10:36:25.637Z,99869.66
2018-12-07T10:38:56.154Z,99867.98
2018-12-07T10:41:26.256Z,99865.38
2018-12-07T10:46:55.918Z,99837.20
2018-12-07T10:49:25.896Z,99827.62
2018-12-07T10:51:56.015Z,99831.89
2018-12-07T10:54:44.319Z,99834.87
2018-12-07T10:57:14.562Z,99827.05
2018-12-07T10:59:46.947Z,99817.20
2018-12-07T11:02:22.099Z,99825.02
2018-12-07T11:05:06.687Z,99821.95
2018-12-07T11:07:41.811Z,99812.36
2018-12-07T11:10:16.752Z,99804.09
2018-12-07T11:12:52.343Z,99799.71
2018-12-07T11:15:43.574Z,99788.55
2018-12-07T11:18:19.186Z,99779.91
2018-12-07T11:20:54.210Z,99772.77
2018-12-07T11:23:45.500Z,99766.79
2018-12-07T11:26:20.432Z,99769.23
2018-12-07T11:28:56.284Z,99759.64
2018-12-07T11:32:32.957Z,99756.38
2018-12-07T11:35:35.450Z,99748.46
2018-12-07T11:38:05.600Z,99735.00
2018-12-07T11:40:35.471Z,99743.09
2018-12-07T11:43:05.528Z,99724.39
2018-12-07T11:45:51.691Z,99724.22
2018-12-07T11:48:21.874Z,99704.13
2018-12-07T11:50:51.939Z,99698.34
2018-12-07T11:53:38.701Z,99687.77
2018-12-07T11:56:08.678Z,99683.86
2018-12-07T11:58:39.703Z,99676.58
2018-12-07T12:01:09.823Z,99665.42
2018-12-07T12:03:56.556Z,99635.84
2018-12-07T12:06:26.605Z,99639.38
2018-12-07T12:08:56.438Z,99630.64
2018-12-07T12:11:26.330Z,99618.91
2018-12-07T12:27:00.849Z,99536.50
2018-12-07T12:29:30.710Z,99529.25
2018-12-07T12:54:10.574Z,99460.20
2018-12-07T13:02:55.677Z,99419.97
2018-12-07T13:08:25.533Z,99395.00
2018-12-07T13:10:56.087Z,99389.54
2018-12-07T13:29:34.347Z,99359.59
2018-12-07T13:32:05.141Z,99350.35
2018-12-07T13:34:57.461Z,99330.39
2018-12-07T13:40:15.358Z,99335.00
2018-12-07T13:42:51.002Z,99342.12
2018-12-07T13:45:32.945Z,99331.34
2018-12-07T13:48:15.894Z,99325.11
2018-12-07T13:56:57.237Z,99317.42
2018-12-07T13:59:32.809Z,99313.46
2018-12-07T14:02:02.926Z,99309.55
2018-12-07T14:08:10.950Z,99294.33
2018-12-07T14:10:41.584Z,99275.98
2018-12-07T14:13:11.921Z,99279.70
2018-12-07T14:15:42.255Z,99273.66
2018-12-07T14:18:12.628Z,99268.64
2018-12-07T14:20:42.999Z,99259.48
2018-12-07T14:23:13.110Z,99259.52
2018-12-07T14:28:31.902Z,99255.84
2018-12-07T14:31:02.651Z,99239.73
2018-12-07T14:33:42.886Z,99241.34
2018-12-07T14:39:16.416Z,99250.46
2018-12-07T14:41:46.883Z,99237.08
2018-12-07T14:44:32.945Z,99238.02
2018-12-07T14:47:03.124Z,99225.36
2018-12-07T14:49:34.669Z,99226.95
2018-12-07T14:52:05.602Z,99232.94
2018-12-07T15:01:24.250Z,99228.63
2018-12-07T15:04:13.874Z,99219.81
2018-12-07T15:06:44.617Z,99194.35
2018-12-07T15:09:15.261Z,99195.38
2018-12-07T15:11:47.157Z,99187.67
2018-12-07T15:14:27.619Z,99183.41
2018-12-07T15:16:58.347Z,99181.28
2018-12-07T15:19:28.972Z,99179.62
2018-12-07T15:21:59.115Z,99178.39
2018-12-07T15:24:39.531Z,99172.47
2018-12-07T15:29:44.720Z,99169.12
2018-12-07T15:32:14.817Z,99152.25
2018-12-07T15:35:00.542Z,99146.87
2018-12-07T15:37:30.563Z,99145.86
2018-12-07T15:40:00.697Z,99143.23
2018-12-07T15:42:31.183Z,99131.05
2018-12-07T15:45:17.364Z,99133.40
2018-12-07T15:47:47.416Z,99127.14
2018-12-07T15:50:24.858Z,99130.55
2018-12-07T15:52:49.720Z,99134.17
2018-12-07T15:55:35.962Z,99130.46
2018-12-07T15:58:06.188Z,99119.50
2018-12-07T16:00:36.493Z,99101.89
2018-12-07T16:03:07.481Z,99088.30
2018-12-07T16:05:54.290Z,99086.80
2018-12-07T16:08:25.138Z,99085.56
2018-12-07T16:10:55.866Z,99084.81
2018-12-07T16:13:43.278Z,99086.86
2018-12-07T16:16:15.353Z,99080.91
2018-12-07T16:18:47.029Z,99073.35
2018-12-07T16:21:17.729Z,99070.56
2018-12-07T16:24:03.017Z,99055.30
2018-12-07T16:26:33.331Z,99047.30
2018-12-07T16:29:03.618Z,99056.61
2018-12-07T16:31:33.992Z,99048.64
2018-12-07T16:34:20.186Z,99044.68
2018-12-07T16:36:50.834Z,99049.69
2018-12-07T16:39:21.365Z,99038.34
2018-12-07T16:41:52.011Z,99039.80
2018-12-07T17:00:25.576Z,98990.75
2018-12-07T17:02:59.225Z,98973.37
2018-12-07T17:09:07.558Z,98970.48
2018-12-07T17:11:55.526Z,98975.37
2018-12-07T17:14:42.850Z,98956.93
2018-12-07T17:17:12.950Z,98945.93
2018-12-07T17:19:50.683Z,98945.06
2018-12-07T17:22:20.756Z,98954.33
2018-12-07T17:25:06.513Z,98941.08
2018-12-07T17:31:14.813Z,98936.08
2018-12-07T17:40:33.477Z,98923.70
2018-12-07T17:43:03.815Z,98926.14
2018-12-07T17:45:43.455Z,98918.41
2018-12-07T17:48:39.793Z,98941.11
2018-12-07T17:51:09.962Z,98935.52
2018-12-07T17:53:59.563Z,98944.77
2018-12-07T17:56:31.766Z,98965.27
2018-12-07T17:59:01.680Z,98978.63
2018-12-07T18:01:31.834Z,98980.65
2018-12-07T18:07:26.055Z,99007.12
2018-12-07T18:16:27.942Z,99052.81
2018-12-07T18:18:58.107Z,99067.10
2018-12-07T18:21:28.716Z,99084.30
2018-12-07T18:27:37.060Z,99119.40
2018-12-07T18:30:07.469Z,99145.28
2018-12-07T18:32:44.774Z,99144.66
2018-12-07T18:38:53.581Z,99156.34
2018-12-07T18:41:23.845Z,99175.07
2018-12-07T18:44:09.836Z,99178.58
2018-12-07T18:46:40.203Z,99183.16
2018-12-07T18:49:10.483Z,99205.69
2018-12-07T18:51:40.762Z,99213.06
2018-12-07T18:57:10.492Z,99242.91
2018-12-07T18:59:40.905Z,99256.72
2018-12-07T19:02:11.134Z,99273.95
2018-12-07T19:04:57.277Z,99281.41
2018-12-07T19:07:27.965Z,99293.61
2018-12-07T19:09:58.302Z,99275.71
2018-12-07T19:12:49.912Z,99279.05
2018-12-07T19:18:58.382Z,99320.59
2018-12-07T19:21:28.588Z,99337.48
2018-12-07T19:24:15.024Z,99344.93
2018-12-07T19:26:46.614Z,99341.80
2018-12-07T19:29:16.802Z,99344.11
2018-12-07T19:31:46.912Z,99346.41
2018-12-07T19:34:33.539Z,99349.77
2018-12-07T20:12:58.352Z,99416.09
2018-12-07T20:31:12.839Z,99465.41
2018-12-07T20:40:11.286Z,99489.79
2018-12-07T20:52:39.289Z,99522.62
2018-12-07T20:55:25.677Z,99528.34
2018-12-07T20:58:13.627Z,99532.98
2018-12-07T21:01:03.392Z,99536.11
2018-12-07T21:07:31.194Z,99543.35
2018-12-07T21:11:35.341Z,99548.02
2018-12-07T21:14:24.026Z,99551.83
2018-12-07T21:17:18.138Z,99558.00
2018-12-07T21:29:17.208Z,99577.95
2018-12-07T21:31:47.376Z,99589.09
2018-12-07T21:34:39.459Z,99593.77
2018-12-07T21:37:09.932Z,99593.17
2018-12-07T21:46:23.953Z,99602.52
2018-12-07T21:48:54.162Z,99618.50
2018-12-07T21:51:37.684Z,99625.52
2018-12-07T21:54:36.559Z,99629.64
2018-12-07T22:03:17.013Z,99640.89
2018-12-07T22:06:05.630Z,99647.20
2018-12-07T22:09:04.632Z,99653.39
2018-12-07T22:11:38.509Z,99654.56
2018-12-07T22:14:26.286Z,99653.02
2018-12-07T22:23:26.671Z,99665.38
2018-12-07T22:38:45.339Z,99701.70
2018-12-07T22:41:15.863Z,99699.84
2018-12-07T22:44:03.798Z,99714.70
2018-12-07T22:55:55.138Z,99708.56
2018-12-07T22:58:25.643Z,99719.59
2018-12-07T23:00:56.292Z,99716.94
2018-12-07T23:03:42.056Z,99723.03
2018-12-07T23:06:13.437Z,99724.54
2018-12-07T23:11:59.717Z,99724.64
2018-12-07T23:17:50.098Z,99723.61
2018-12-07T23:32:57.834Z,99720.02
2018-12-07T23:35:45.690Z,99713.31
2018-12-07T23:41:39.944Z,99732.16
2018-12-07T23:44:26.376Z,99713.02
2018-12-07T23:50:24.665Z,99718.81
2018-12-07T23:53:10.601Z,99722.05
2018-12-07T23:59:18.626Z,99728.08
